createdAt,value
2018-04-06T00:00:21.081Z,102191.85
2018-04-06T00:01:26.331Z,102190.85
2018-04-06T00:02:31.261Z,102195.66
2018-04-06T00:03:36.368Z,102198.20
2018-04-06T00:04:41.064Z,102200.41
2018-04-06T00:05:45.941Z,102199.45
2018-04-06T00:06:50.614Z,102205.50
2018-04-06T00:07:56.221Z,102208.41
2018-04-06T00:09:01.123Z,102206.67
2018-04-06T00:10:06.092Z,102206.02
2018-04-06T00:11:10.807Z,102201.59
2018-04-06T00:12:16.272Z,102204.02
2018-04-06T00:13:21.615Z,102207.65
2018-04-06T00:14:26.778Z,102198.38
2018-04-06T00:15:32.157Z,102200.03
2018-04-06T00:16:37.455Z,102203.58
2018-04-06T00:17:42.561Z,102204.42
2018-04-06T00:18:48.251Z,102210.09
2018-04-06T00:19:53.811Z,102206.57
2018-04-06T00:20:58.686Z,102209.27
2018-04-06T00:22:03.494Z,102210.98
2018-04-06T00:23:08.356Z,102201.34
2018-04-06T00:24:13.935Z,102200.79
2018-04-06T00:25:19.413Z,102213.84
2018-04-06T00:26:24.479Z,102212.41
2018-04-06T00:27:29.385Z,102202.00
2018-04-06T00:28:35.319Z,102203.44
2018-04-06T00:29:39.735Z,102205.34
2018-04-06T00:30:44.412Z,102209.27
2018-04-06T00:31:49.181Z,102201.30
2018-04-06T00:32:53.868Z,102202.36
2018-04-06T00:33:59.905Z,102211.05
2018-04-06T00:35:05.081Z,102205.72
2018-04-06T00:36:10.408Z,102208.25
2018-04-06T00:37:15.218Z,102208.57
2018-04-06T00:38:20.304Z,102206.70
2018-04-06T00:39:25.472Z,102212.42
2018-04-06T00:40:30.211Z,102213.28
2018-04-06T00:41:35.465Z,102203.20
2018-04-06T00:42:40.000Z,102208.95
2018-04-06T00:43:44.564Z,102200.80
2018-04-06T00:44:49.654Z,102204.30
2018-04-06T00:45:54.591Z,102206.86
2018-04-06T00:46:59.114Z,102204.69
2018-04-06T00:48:03.698Z,102213.03
2018-04-06T00:49:08.285Z,102208.67
2018-04-06T00:50:12.758Z,102210.46
2018-04-06T00:51:17.242Z,102213.98
2018-04-06T00:52:21.932Z,102220.06
2018-04-06T00:53:35.099Z,102222.16
2018-04-06T00:54:39.709Z,102222.94
2018-04-06T00:55:44.140Z,102217.69
2018-04-06T00:56:48.611Z,102218.01
2018-04-06T00:57:53.499Z,102215.12
2018-04-06T00:58:59.115Z,102214.98
2018-04-06T01:00:06.416Z,102214.09
2018-04-06T01:01:10.957Z,102219.20
2018-04-06T01:02:15.254Z,102218.92
2018-04-06T01:03:19.995Z,102223.55
2018-04-06T01:04:24.568Z,102219.84
2018-04-06T01:05:30.236Z,102223.67
2018-04-06T01:06:35.630Z,102220.06
2018-04-06T01:07:40.708Z,102221.33
2018-04-06T01:08:46.363Z,102226.59
2018-04-06T01:09:51.146Z,102224.89
2018-04-06T01:10:56.741Z,102221.22
2018-04-06T01:12:01.522Z,102223.64
2018-04-06T01:13:05.984Z,102226.99
2018-04-06T01:14:10.322Z,102221.30
2018-04-06T01:15:16.397Z,102222.83
2018-04-06T01:16:21.238Z,102220.52
2018-04-06T01:17:25.741Z,102220.17
2018-04-06T01:18:30.642Z,102219.59
2018-04-06T01:19:35.768Z,102218.42
2018-04-06T01:20:40.545Z,102218.41
2018-04-06T01:21:46.128Z,102222.16
2018-04-06T01:22:51.394Z,102223.31
2018-04-06T01:23:56.431Z,102230.77
2018-04-06T01:25:01.736Z,102229.85
2018-04-06T01:26:06.152Z,102234.72
2018-04-06T01:27:10.638Z,102228.10
2018-04-06T01:28:15.055Z,102221.75
2018-04-06T01:29:19.915Z,102227.19
2018-04-06T01:30:24.975Z,102232.72
2018-04-06T01:31:29.509Z,102233.53
2018-04-06T01:32:34.028Z,102233.44
2018-04-06T01:33:38.414Z,102227.84
2018-04-06T01:34:42.777Z,102230.56
2018-04-06T01:35:48.708Z,102229.25
2018-04-06T01:36:53.029Z,102230.17
2018-04-06T01:37:57.576Z,102220.02
2018-04-06T01:39:02.435Z,102221.70
2018-04-06T01:40:06.819Z,102229.20
2018-04-06T01:41:11.197Z,102221.95
2018-04-06T01:42:15.876Z,102223.15
2018-04-06T01:43:20.101Z,102226.78
2018-04-06T01:44:24.419Z,102226.36
2018-04-06T01:45:29.040Z,102226.17
2018-04-06T01:46:33.401Z,102228.61
2018-04-06T01:47:38.029Z,102226.62
2018-04-06T01:48:42.359Z,102229.32
2018-04-06T01:49:46.931Z,102231.00
2018-04-06T01:50:51.307Z,102223.97
2018-04-06T01:51:55.760Z,102235.88
2018-04-06T01:53:01.076Z,102225.86
2018-04-06T01:54:05.362Z,102231.40
2018-04-06T01:55:10.178Z,102237.98
2018-04-06T01:56:14.475Z,102240.54
2018-04-06T01:57:19.008Z,102235.30
2018-04-06T01:58:23.461Z,102241.50
2018-04-06T01:59:28.253Z,102239.92
2018-04-06T02:00:32.926Z,102243.80
2018-04-06T02:01:37.946Z,102235.31
2018-04-06T02:02:42.279Z,102237.41
2018-04-06T02:03:47.564Z,102240.17
2018-04-06T02:04:52.205Z,102242.59
2018-04-06T02:05:57.162Z,102242.81
2018-04-06T02:07:02.024Z,102242.73
2018-04-06T02:08:07.077Z,102241.95
2018-04-06T02:09:11.729Z,102242.64
2018-04-06T02:10:16.176Z,102242.58
2018-04-06T02:11:20.427Z,102244.22
2018-04-06T02:12:24.624Z,102244.17
2018-04-06T02:13:29.120Z,102246.59
2018-04-06T02:14:33.484Z,102249.60
2018-04-06T02:15:37.977Z,102246.56
2018-04-06T02:16:42.538Z,102249.69
2018-04-06T02:17:47.261Z,102248.27
2018-04-06T02:18:51.748Z,102257.05
2018-04-06T02:19:56.326Z,102252.11
2018-04-06T02:21:00.587Z,102261.25
2018-04-06T02:22:04.860Z,102262.78
2018-04-06T02:23:09.399Z,102252.62
2018-04-06T02:24:14.146Z,102259.84
2018-04-06T02:25:18.418Z,102253.73
2018-04-06T02:26:23.098Z,102258.77
2018-04-06T02:27:27.309Z,102264.03
2018-04-06T02:28:31.537Z,102253.84
2018-04-06T02:29:36.119Z,102258.19
2018-04-06T02:30:40.327Z,102258.61
2018-04-06T02:31:44.597Z,102256.02
2018-04-06T02:32:49.272Z,102254.70
2018-04-06T02:33:53.593Z,102254.68
2018-04-06T02:34:58.871Z,102251.85
2018-04-06T02:36:03.225Z,102254.41
2018-04-06T02:37:07.491Z,102255.34
2018-04-06T02:38:11.789Z,102254.80
2018-04-06T02:39:15.952Z,102252.50
2018-04-06T02:40:20.184Z,102254.08
2018-04-06T02:41:24.388Z,102253.06
2018-04-06T02:42:28.612Z,102253.71
2018-04-06T02:43:33.027Z,102251.53
2018-04-06T02:44:37.585Z,102247.13
2018-04-06T02:45:42.637Z,102250.52
2018-04-06T02:46:46.895Z,102245.05
2018-04-06T02:47:51.942Z,102249.20
2018-04-06T02:48:56.238Z,102247.41
2018-04-06T02:50:01.065Z,102254.73
2018-04-06T02:51:05.513Z,102245.77
2018-04-06T02:52:10.468Z,102248.78
2018-04-06T02:53:14.827Z,102246.38
2018-04-06T02:54:19.192Z,102247.89
2018-04-06T02:55:23.468Z,102247.69
2018-04-06T02:56:27.825Z,102249.80
2018-04-06T02:57:32.087Z,102243.09
2018-04-06T02:58:36.749Z,102246.11
2018-04-06T02:59:40.951Z,102248.61
2018-04-06T03:00:45.424Z,102243.72
2018-04-06T03:01:50.248Z,102252.45
2018-04-06T03:02:54.459Z,102246.82
2018-04-06T03:03:58.942Z,102248.37
2018-04-06T03:05:03.421Z,102248.02
2018-04-06T03:06:07.676Z,102241.81
2018-04-06T03:07:11.907Z,102244.91
2018-04-06T03:08:16.169Z,102249.23
2018-04-06T03:09:20.406Z,102247.81
2018-04-06T03:10:25.216Z,102245.24
2018-04-06T03:11:29.384Z,102251.88
2018-04-06T03:12:33.547Z,102249.65
2018-04-06T03:13:38.001Z,102254.15
2018-04-06T03:14:42.245Z,102255.25
2018-04-06T03:15:46.720Z,102253.14
2018-04-06T03:16:51.479Z,102257.01
2018-04-06T03:17:55.667Z,102257.78
2018-04-06T03:19:00.698Z,102249.50
2018-04-06T03:20:04.953Z,102256.59
2018-04-06T03:21:09.124Z,102260.14
2018-04-06T03:22:13.422Z,102259.19
2018-04-06T03:23:17.943Z,102261.80
2018-04-06T03:24:22.188Z,102266.51
2018-04-06T03:25:26.347Z,102270.11
2018-04-06T03:26:30.503Z,102271.01
2018-04-06T03:27:34.815Z,102269.28
2018-04-06T03:28:39.011Z,102271.27
2018-04-06T03:29:43.393Z,102275.53
2018-04-06T03:30:47.904Z,102274.22
2018-04-06T03:31:53.111Z,102277.80
2018-04-06T03:32:57.277Z,102276.45
2018-04-06T03:34:01.650Z,102271.03
2018-04-06T03:35:06.236Z,102273.72
2018-04-06T03:36:10.760Z,102276.27
2018-04-06T03:37:15.063Z,102278.00
2018-04-06T03:38:19.255Z,102281.36
2018-04-06T03:39:23.966Z,102274.34
2018-04-06T03:40:28.517Z,102274.78
2018-04-06T03:41:32.947Z,102276.06
2018-04-06T03:42:37.754Z,102269.45
2018-04-06T03:43:42.382Z,102271.11
2018-04-06T03:44:46.914Z,102276.77
2018-04-06T03:45:52.075Z,102271.47
2018-04-06T03:46:56.336Z,102274.87
2018-04-06T03:48:00.542Z,102280.42
2018-04-06T03:49:05.081Z,102280.37
2018-04-06T03:50:09.232Z,102273.14
2018-04-06T03:51:13.429Z,102277.10
2018-04-06T03:52:17.607Z,102277.22
2018-04-06T03:53:21.799Z,102279.84
2018-04-06T03:54:26.409Z,102278.83
2018-04-06T03:55:30.554Z,102280.94
2018-04-06T03:56:34.704Z,102286.56
2018-04-06T03:57:38.988Z,102285.61
2018-04-06T03:58:43.355Z,102286.03
2018-04-06T03:59:47.566Z,102289.12
2018-04-06T04:00:53.587Z,102291.77
2018-04-06T04:01:57.772Z,102293.98
2018-04-06T04:03:02.055Z,102300.44
2018-04-06T04:04:06.245Z,102295.20
2018-04-06T04:05:10.530Z,102298.16
2018-04-06T04:06:14.707Z,102297.69
2018-04-06T04:07:19.240Z,102294.20
2018-04-06T04:08:23.714Z,102293.95
2018-04-06T04:09:28.347Z,102299.63
2018-04-06T04:10:32.502Z,102298.77
2018-04-06T04:11:36.895Z,102300.11
2018-04-06T04:12:41.190Z,102298.71
2018-04-06T04:13:45.761Z,102299.54
2018-04-06T04:14:49.991Z,102304.39
2018-04-06T04:15:55.366Z,102301.77
2018-04-06T04:16:59.554Z,102297.67
2018-04-06T04:18:04.208Z,102295.47
2018-04-06T04:19:08.830Z,102296.27
2018-04-06T04:20:13.027Z,102297.94
2018-04-06T04:21:17.199Z,102297.87
2018-04-06T04:22:21.475Z,102293.69
2018-04-06T04:23:25.705Z,102300.28
2018-04-06T04:24:30.004Z,102300.43
2018-04-06T04:25:34.255Z,102294.33
2018-04-06T04:26:38.770Z,102293.70
2018-04-06T04:27:43.136Z,102296.02
2018-04-06T04:28:47.432Z,102296.80
2018-04-06T04:29:51.734Z,102296.94
2018-04-06T04:30:57.253Z,102292.41
2018-04-06T04:32:02.347Z,102293.20
2018-04-06T04:33:06.839Z,102301.08
2018-04-06T04:34:11.169Z,102292.80
2018-04-06T04:35:15.469Z,102294.91
2018-04-06T04:36:19.827Z,102294.41
2018-04-06T04:37:24.079Z,102296.86
2018-04-06T04:38:28.356Z,102298.59
2018-04-06T04:39:32.883Z,102296.30
2018-04-06T04:40:37.198Z,102298.97
2018-04-06T04:41:41.615Z,102300.52
2018-04-06T04:42:45.923Z,102298.31
2018-04-06T04:43:50.248Z,102300.55
2018-04-06T04:44:55.717Z,102298.57
2018-04-06T04:46:00.361Z,102295.08
2018-04-06T04:47:05.383Z,102302.49
2018-04-06T04:48:09.610Z,102304.04
2018-04-06T04:49:13.868Z,102294.80
2018-04-06T04:50:18.274Z,102302.17
2018-04-06T04:51:22.790Z,102300.19
2018-04-06T04:52:27.036Z,102298.80
2018-04-06T04:53:31.506Z,102297.50
2018-04-06T04:54:35.820Z,102303.19
2018-04-06T04:55:40.242Z,102304.39
2018-04-06T04:56:44.722Z,102293.00
2018-04-06T04:57:49.446Z,102298.42
2018-04-06T04:58:53.835Z,102301.36
2018-04-06T04:59:58.938Z,102299.27
2018-04-06T05:01:03.940Z,102314.73
2018-04-06T05:02:08.586Z,102313.94
2018-04-06T05:03:12.881Z,102312.28
2018-04-06T05:04:17.431Z,102307.73
2018-04-06T05:05:21.782Z,102310.23
2018-04-06T05:06:26.173Z,102312.69
2018-04-06T05:07:30.539Z,102312.97
2018-04-06T05:08:35.023Z,102308.45
2018-04-06T05:09:39.419Z,102315.15
2018-04-06T05:10:43.937Z,102313.19
2018-04-06T05:11:48.234Z,102318.49
2018-04-06T05:12:52.566Z,102313.92
2018-04-06T05:13:57.667Z,102307.70
2018-04-06T05:15:04.234Z,102312.30
2018-04-06T05:16:09.285Z,102309.81
2018-04-06T05:17:13.989Z,102321.04
2018-04-06T05:18:18.370Z,102321.47
2018-04-06T05:19:23.018Z,102319.22
2018-04-06T05:20:27.481Z,102316.77
2018-04-06T05:21:32.018Z,102310.94
2018-04-06T05:22:36.644Z,102311.06
2018-04-06T05:23:41.389Z,102317.44
2018-04-06T05:24:46.024Z,102313.05
2018-04-06T05:25:50.564Z,102318.66
2018-04-06T05:26:55.653Z,102318.04
2018-04-06T05:28:00.242Z,102319.30
2018-04-06T05:29:05.689Z,102319.94
2018-04-06T05:30:10.046Z,102320.97
2018-04-06T05:31:14.798Z,102322.48
2018-04-06T05:32:19.798Z,102321.15
2018-04-06T05:33:24.349Z,102326.46
2018-04-06T05:34:28.890Z,102314.81
2018-04-06T05:35:33.271Z,102315.42
2018-04-06T05:36:37.618Z,102321.73
2018-04-06T05:37:42.311Z,102323.10
2018-04-06T05:38:46.949Z,102322.53
2018-04-06T05:39:51.353Z,102329.36
2018-04-06T05:40:55.894Z,102328.63
2018-04-06T05:42:00.769Z,102327.48
2018-04-06T05:43:05.354Z,102331.15
2018-04-06T05:44:10.111Z,102329.09
2018-04-06T05:45:23.039Z,102325.56
2018-04-06T05:46:27.783Z,102323.22
2018-04-06T05:47:32.601Z,102328.23
2018-04-06T05:48:37.576Z,102324.44
2018-04-06T05:49:42.383Z,102322.23
2018-04-06T05:50:47.049Z,102322.44
2018-04-06T05:51:51.906Z,102322.80
2018-04-06T05:52:57.082Z,102320.43
2018-04-06T05:54:01.468Z,102315.02
2018-04-06T05:55:07.410Z,102316.97
2018-04-06T05:56:12.295Z,102315.66
2018-04-06T05:57:17.340Z,102317.15
2018-04-06T05:58:21.894Z,102315.23
2018-04-06T05:59:26.866Z,102314.03
2018-04-06T06:00:32.399Z,102319.88
2018-04-06T06:01:37.532Z,102325.88
2018-04-06T06:02:42.258Z,102327.59
2018-04-06T06:03:47.151Z,102328.89
2018-04-06T06:04:51.917Z,102329.55
2018-04-06T06:05:57.355Z,102321.60
2018-04-06T06:07:02.528Z,102326.16
2018-04-06T06:08:07.701Z,102328.30
2018-04-06T06:09:12.506Z,102329.94
2018-04-06T06:10:17.517Z,102327.69
2018-04-06T06:11:22.307Z,102327.58
2018-04-06T06:12:26.969Z,102333.68
2018-04-06T06:13:31.890Z,102327.55
2018-04-06T06:14:36.717Z,102331.12
2018-04-06T06:15:42.101Z,102326.98
2018-04-06T06:16:46.638Z,102321.48
2018-04-06T06:17:51.420Z,102322.98
2018-04-06T06:18:56.392Z,102324.38
2018-04-06T06:20:01.684Z,102328.60
2018-04-06T06:21:07.674Z,102327.73
2018-04-06T06:22:12.413Z,102326.13
2018-04-06T06:23:17.283Z,102328.44
2018-04-06T06:24:22.045Z,102324.66
2018-04-06T06:25:27.188Z,102321.37
2018-04-06T06:26:32.336Z,102327.76
2018-04-06T06:27:37.373Z,102327.59
2018-04-06T06:28:42.462Z,102327.56
2018-04-06T06:29:47.562Z,102325.70
2018-04-06T06:30:54.002Z,102329.67
2018-04-06T06:31:59.897Z,102334.09
2018-04-06T06:33:04.968Z,102325.81
2018-04-06T06:34:09.793Z,102329.25
2018-04-06T06:35:14.652Z,102326.20
2018-04-06T06:36:19.732Z,102327.48
2018-04-06T06:37:24.657Z,102328.75
2018-04-06T06:38:29.394Z,102329.20
2018-04-06T06:39:34.850Z,102328.67
2018-04-06T06:40:39.780Z,102331.49
2018-04-06T06:41:44.893Z,102331.06
2018-04-06T06:42:49.642Z,102330.30
2018-04-06T06:43:54.723Z,102329.03
2018-04-06T06:44:59.778Z,102323.80
2018-04-06T06:46:06.327Z,102325.61
2018-04-06T06:47:11.486Z,102328.88
2018-04-06T06:48:16.631Z,102336.66
2018-04-06T06:49:21.956Z,102328.89
2018-04-06T06:50:27.030Z,102327.44
2018-04-06T06:51:32.086Z,102329.52
2018-04-06T06:52:37.177Z,102333.06
2018-04-06T06:53:42.311Z,102331.73
2018-04-06T06:54:47.451Z,102327.27
2018-04-06T06:55:52.579Z,102326.91
2018-04-06T06:56:58.326Z,102317.64
2018-04-06T06:58:03.520Z,102320.12
2018-04-06T06:59:09.602Z,102312.95
2018-04-06T07:00:17.967Z,102310.66
2018-04-06T07:01:23.073Z,102317.50
2018-04-06T07:02:28.218Z,102313.39
2018-04-06T07:03:33.423Z,102317.91
2018-04-06T07:04:38.471Z,102314.87
2018-04-06T07:05:43.885Z,102311.30
2018-04-06T07:06:48.913Z,102310.53
2018-04-06T07:07:54.163Z,102301.64
2018-04-06T07:08:59.566Z,102311.77
2018-04-06T07:10:04.647Z,102308.88
2018-04-06T07:11:09.856Z,102309.92
2018-04-06T07:12:15.161Z,102311.69
2018-04-06T07:13:20.379Z,102317.02
2018-04-06T07:14:25.282Z,102318.79
2018-04-06T07:15:31.276Z,102305.98
2018-04-06T07:16:36.368Z,102314.84
2018-04-06T07:17:41.293Z,102310.52
2018-04-06T07:18:46.641Z,102301.20
2018-04-06T07:19:51.755Z,102295.00
2018-04-06T07:20:57.740Z,102294.52
2018-04-06T07:22:02.964Z,102291.86
2018-04-06T07:23:08.971Z,102291.41
2018-04-06T07:24:14.191Z,102289.21
2018-04-06T07:25:19.466Z,102286.97
2018-04-06T07:26:24.426Z,102284.73
2018-04-06T07:27:29.500Z,102282.09
2018-04-06T07:28:34.674Z,102283.19
2018-04-06T07:29:39.989Z,102279.78
2018-04-06T07:30:45.650Z,102281.84
2018-04-06T07:31:50.665Z,102284.31
2018-04-06T07:32:56.408Z,102280.81
2018-04-06T07:34:02.372Z,102276.08
2018-04-06T07:35:08.540Z,102280.64
2018-04-06T07:36:13.859Z,102276.02
2018-04-06T07:37:19.088Z,102268.62
2018-04-06T07:38:24.269Z,102268.31
2018-04-06T07:39:29.350Z,102275.40
2018-04-06T07:40:34.519Z,102273.63
2018-04-06T07:41:39.430Z,102269.63
2018-04-06T07:42:45.026Z,102274.92
2018-04-06T07:43:50.288Z,102271.71
2018-04-06T07:44:55.521Z,102277.97
2018-04-06T07:46:01.028Z,102280.17
2018-04-06T07:47:07.119Z,102271.34
2018-04-06T07:48:12.126Z,102271.52
2018-04-06T07:49:17.552Z,102272.16
2018-04-06T07:50:22.633Z,102278.77
2018-04-06T07:51:27.827Z,102279.23
2018-04-06T07:52:33.111Z,102279.27
2018-04-06T07:53:38.159Z,102282.38
2018-04-06T07:54:43.387Z,102276.70
2018-04-06T07:55:48.831Z,102277.47
2018-04-06T07:56:54.125Z,102270.05
2018-04-06T07:57:59.216Z,102265.13
2018-04-06T07:59:05.319Z,102273.52
2018-04-06T08:00:13.344Z,102272.47
2018-04-06T08:01:18.419Z,102277.08
2018-04-06T08:02:23.524Z,102268.64
2018-04-06T08:03:28.611Z,102267.85
2018-04-06T08:04:33.619Z,102272.75
2018-04-06T08:05:38.584Z,102276.73
2018-04-06T08:06:43.468Z,102280.26
2018-04-06T08:07:48.444Z,102283.41
2018-04-06T08:08:53.817Z,102282.94
2018-04-06T08:09:59.020Z,102281.63
2018-04-06T08:11:04.367Z,102283.39
2018-04-06T08:12:10.661Z,102286.07
2018-04-06T08:13:16.465Z,102282.00
2018-04-06T08:14:21.978Z,102289.88
2018-04-06T08:15:27.302Z,102288.09
2018-04-06T08:16:32.472Z,102286.89
2018-04-06T08:17:37.634Z,102288.67
2018-04-06T08:18:42.711Z,102298.00
2018-04-06T08:19:48.160Z,102297.88
2018-04-06T08:20:53.776Z,102297.52
2018-04-06T08:21:58.858Z,102295.86
2018-04-06T08:23:04.497Z,102288.31
2018-04-06T08:24:09.666Z,102289.55
2018-04-06T08:25:14.895Z,102301.97
2018-04-06T08:26:20.058Z,102294.45
2018-04-06T08:27:25.402Z,102298.61
2018-04-06T08:28:30.496Z,102294.58
2018-04-06T08:29:35.566Z,102297.20
2018-04-06T08:30:41.423Z,102295.44
2018-04-06T08:31:46.550Z,102297.77
2018-04-06T08:32:51.768Z,102295.64
2018-04-06T08:33:56.866Z,102292.84
2018-04-06T08:35:01.938Z,102294.79
2018-04-06T08:36:07.019Z,102295.36
2018-04-06T08:37:12.065Z,102296.13
2018-04-06T08:38:17.761Z,102289.91
2018-04-06T08:39:23.923Z,102296.09
2018-04-06T08:40:29.106Z,102297.16
2018-04-06T08:41:34.076Z,102294.77
2018-04-06T08:42:39.318Z,102292.00
2018-04-06T08:43:44.782Z,102295.21
2018-04-06T08:44:49.704Z,102292.91
2018-04-06T08:45:55.287Z,102286.98
2018-04-06T08:47:00.603Z,102288.78
2018-04-06T08:48:05.524Z,102284.37
2018-04-06T08:49:11.732Z,102287.52
2018-04-06T08:50:17.593Z,102281.78
2018-04-06T08:51:22.753Z,102282.86
2018-04-06T08:52:27.703Z,102288.55
2018-04-06T08:53:33.651Z,102286.19
2018-04-06T08:54:38.867Z,102293.30
2018-04-06T08:55:44.087Z,102299.15
2018-04-06T08:56:49.114Z,102288.41
2018-04-06T08:57:54.216Z,102298.02
2018-04-06T08:58:59.253Z,102294.98
2018-04-06T09:00:07.149Z,102295.98
2018-04-06T09:01:12.612Z,102292.46
2018-04-06T09:02:17.740Z,102292.25
2018-04-06T09:03:22.701Z,102289.86
2018-04-06T09:04:27.973Z,102295.30
2018-04-06T09:05:32.922Z,102295.63
2018-04-06T09:06:38.259Z,102291.19
2018-04-06T09:07:43.477Z,102283.81
2018-04-06T09:08:48.604Z,102288.91
2018-04-06T09:09:53.678Z,102288.23
2018-04-06T09:10:59.242Z,102296.41
2018-04-06T09:12:04.484Z,102296.84
2018-04-06T09:13:10.588Z,102292.82
2018-04-06T09:14:15.721Z,102291.70
2018-04-06T09:15:21.036Z,102294.09
2018-04-06T09:16:26.226Z,102294.22
2018-04-06T09:17:31.701Z,102291.82
2018-04-06T09:18:36.600Z,102300.77
2018-04-06T09:19:41.879Z,102293.30
2018-04-06T09:20:46.906Z,102290.05
2018-04-06T09:21:52.087Z,102292.70
2018-04-06T09:22:57.902Z,102293.72
2018-04-06T09:24:02.912Z,102295.56
2018-04-06T09:25:09.660Z,102291.70
2018-04-06T09:26:14.658Z,102300.64
2018-04-06T09:27:20.564Z,102296.92
2018-04-06T09:28:25.751Z,102290.27
2018-04-06T09:29:31.919Z,102292.16
2018-04-06T09:30:37.093Z,102295.41
2018-04-06T09:31:42.343Z,102295.52
2018-04-06T09:32:47.434Z,102300.92
2018-04-06T09:33:52.587Z,102295.47
2018-04-06T09:34:58.054Z,102295.83
2018-04-06T09:36:03.455Z,102291.52
2018-04-06T09:37:08.432Z,102290.27
2018-04-06T09:38:13.522Z,102287.03
2018-04-06T09:39:19.196Z,102289.61
2018-04-06T09:40:24.089Z,102298.78
2018-04-06T09:41:29.524Z,102301.69
2018-04-06T09:42:34.971Z,102296.58
2018-04-06T09:43:40.321Z,102292.67
2018-04-06T09:44:45.449Z,102296.47
2018-04-06T09:45:50.992Z,102290.06
2018-04-06T09:46:56.475Z,102291.20
2018-04-06T09:48:01.818Z,102291.16
2018-04-06T09:49:06.881Z,102287.48
2018-04-06T09:50:12.788Z,102287.96
2018-04-06T09:51:18.460Z,102287.31
2018-04-06T09:52:23.470Z,102288.06
2018-04-06T09:53:28.670Z,102289.31
2018-04-06T09:54:34.264Z,102276.63
2018-04-06T09:55:39.566Z,102274.03
2018-04-06T09:56:45.328Z,102268.08
2018-04-06T09:57:50.471Z,102274.13
2018-04-06T09:58:55.678Z,102268.13
2018-04-06T10:00:00.792Z,102271.11
2018-04-06T10:01:07.785Z,102274.77
2018-04-06T10:02:14.196Z,102271.23
2018-04-06T10:03:20.403Z,102269.75
2018-04-06T10:04:25.751Z,102264.27
2018-04-06T10:05:30.588Z,102264.66
2018-04-06T10:06:35.830Z,102263.20
2018-04-06T10:07:41.206Z,102257.08
2018-04-06T10:08:46.221Z,102260.53
2018-04-06T10:09:51.258Z,102264.91
2018-04-06T10:10:56.328Z,102255.56
2018-04-06T10:12:01.506Z,102259.89
2018-04-06T10:13:06.503Z,102259.06
2018-04-06T10:14:13.627Z,102258.82
2018-04-06T10:15:19.206Z,102253.64
2018-04-06T10:16:24.369Z,102249.91
2018-04-06T10:17:29.947Z,102256.20
2018-04-06T10:18:35.038Z,102256.19
2018-04-06T10:19:40.044Z,102254.72
2018-04-06T10:20:45.253Z,102251.23
2018-04-06T10:21:50.270Z,102251.33
2018-04-06T10:22:55.338Z,102256.38
2018-04-06T10:24:00.398Z,102249.00
2018-04-06T10:25:06.450Z,102248.59
2018-04-06T10:26:11.558Z,102238.99
2018-04-06T10:27:17.164Z,102242.33
2018-04-06T10:28:22.333Z,102242.70
2018-04-06T10:29:28.050Z,102231.14
2018-04-06T10:30:34.351Z,102228.32
2018-04-06T10:31:39.293Z,102236.82
2018-04-06T10:32:44.386Z,102224.61
2018-04-06T10:33:49.591Z,102226.19
2018-04-06T10:34:54.666Z,102235.66
2018-04-06T10:35:59.565Z,102227.92
2018-04-06T10:37:05.033Z,102224.41
2018-04-06T10:38:10.337Z,102226.31
2018-04-06T10:39:15.726Z,102224.16
2018-04-06T10:40:20.729Z,102219.05
2018-04-06T10:41:25.894Z,102234.80
2018-04-06T10:42:30.850Z,102221.76
2018-04-06T10:43:35.939Z,102225.47
2018-04-06T10:44:40.722Z,102215.45
2018-04-06T10:45:46.457Z,102219.79
2018-04-06T10:46:51.776Z,102216.52
2018-04-06T10:47:56.851Z,102210.20
2018-04-06T10:49:01.920Z,102221.47
2018-04-06T10:50:08.025Z,102217.30
2018-04-06T10:51:13.329Z,102211.33
2018-04-06T10:52:18.905Z,102213.42
2018-04-06T10:53:24.085Z,102215.07
2018-04-06T10:54:29.790Z,102216.16
2018-04-06T10:55:35.769Z,102222.79
2018-04-06T10:56:40.674Z,102223.23
2018-04-06T10:57:45.656Z,102226.55
2018-04-06T10:58:50.463Z,102225.44
2018-04-06T10:59:55.359Z,102224.77
2018-04-06T11:01:00.497Z,102224.06
2018-04-06T11:02:05.945Z,102225.59
2018-04-06T11:03:11.163Z,102216.66
2018-04-06T11:04:16.353Z,102213.61
2018-04-06T11:05:22.082Z,102212.34
2018-04-06T11:06:27.227Z,102202.55
2018-04-06T11:07:32.720Z,102204.32
2018-04-06T11:08:37.725Z,102204.64
2018-04-06T11:10:57.893Z,102205.34
2018-04-06T11:12:03.029Z,102209.78
2018-04-06T11:13:08.179Z,102201.69
2018-04-06T11:14:13.169Z,102200.27
2018-04-06T11:15:19.163Z,102188.19
2018-04-06T11:16:24.623Z,102194.78
2018-04-06T11:17:29.839Z,102182.74
2018-04-06T11:18:34.666Z,102188.34
2018-04-06T11:19:39.531Z,102182.87
2018-04-06T11:20:44.909Z,102185.45
2018-04-06T11:21:50.072Z,102185.61
2018-04-06T11:22:55.132Z,102184.02
2018-04-06T11:24:00.144Z,102190.48
2018-04-06T11:25:05.355Z,102181.78
2018-04-06T11:26:10.537Z,102185.17
2018-04-06T11:27:15.530Z,102180.78
2018-04-06T11:28:20.704Z,102190.11
2018-04-06T11:29:25.798Z,102188.72
2018-04-06T11:30:31.820Z,102186.34
2018-04-06T11:31:37.151Z,102186.47
2018-04-06T11:32:42.632Z,102178.28
2018-04-06T11:33:47.790Z,102178.94
2018-04-06T11:34:53.027Z,102177.41
2018-04-06T11:35:58.164Z,102172.80
2018-04-06T11:37:03.241Z,102169.92
2018-04-06T11:38:08.260Z,102174.83
2018-04-06T11:39:13.800Z,102173.03
2018-04-06T11:40:19.400Z,102172.70
2018-04-06T11:41:24.375Z,102175.13
2018-04-06T11:42:29.419Z,102162.76
2018-04-06T11:44:47.105Z,102168.70
2018-04-06T11:45:52.601Z,102170.66
2018-04-06T11:46:57.557Z,102173.31
2018-04-06T11:48:02.787Z,102168.39
2018-04-06T11:49:07.829Z,102163.67
2018-04-06T11:50:12.982Z,102151.11
2018-04-06T11:51:18.045Z,102154.49
2018-04-06T11:52:23.776Z,102152.30
2018-04-06T11:53:29.229Z,102153.72
2018-04-06T11:54:34.157Z,102154.67
2018-04-06T11:55:39.393Z,102142.45
2018-04-06T11:56:44.605Z,102142.84
2018-04-06T11:57:49.503Z,102149.36
2018-04-06T11:58:55.020Z,102144.64
2018-04-06T12:00:00.103Z,102144.98
2018-04-06T12:01:05.675Z,102148.82
2018-04-06T12:02:10.898Z,102138.68
2018-04-06T12:03:16.046Z,102144.77
2018-04-06T12:04:21.213Z,102139.65
2018-04-06T12:05:26.242Z,102141.33
2018-04-06T12:06:31.253Z,102148.48
2018-04-06T12:07:36.287Z,102132.04
2018-04-06T12:08:41.513Z,102142.03
2018-04-06T12:09:46.444Z,102128.63
2018-04-06T12:10:51.318Z,102133.73
2018-04-06T12:11:56.503Z,102130.47
2018-04-06T12:13:01.500Z,102128.39
2018-04-06T12:14:06.524Z,102131.57
2018-04-06T12:15:13.703Z,102129.88
2018-04-06T12:16:19.926Z,102124.09
2018-04-06T12:17:25.561Z,102130.88
2018-04-06T12:18:30.557Z,102124.94
2018-04-06T12:19:35.617Z,102126.90
2018-04-06T12:20:41.883Z,102120.14
2018-04-06T12:21:47.024Z,102116.41
2018-04-06T12:22:51.959Z,102117.77
2018-04-06T12:23:57.336Z,102114.52